Terminal Aerodrome Forecast
Issued by NWS Twin Cities, MN

Home | Current Version | Previous Version | Text Only | Print | Product List | Glossary On
Versions: 1 2 3 4 5 6 7 8 9 10 11 12 13 14 15 16 17 18
000
FTUS43 KMPX 140500
TAFEAU
TAF
KEAU 140520Z 1406/1506 29005KT P6SM FEW060 BKN080
     FM140900 29005KT P6SM BKN050
     FM141500 30012KT P6SM VCSH BKN040
     FM141800 30014G21KT P6SM VCSH SCT025 OVC040 PROB30 1418/1422
      6SM -SHRA OVC025
     FM150200 30005KT P6SM SCT025 OVC035=

USA.gov is the U.S. government's official web portal to all federal, state and local government web resources and services.